Terminal Aerodrome Forecast
Issued by NWS

Home | Current Version | Previous Version | Text Only | Print | Product List | Glossary On
Versions: 1 2 3 4 5 6 7 8 9 10 11 12 13 14 15
000
FTUS43 KICT 261943 AAC
TAFHUT
TAF AMD
KHUT 261943Z 2620/2718 20014G22KT P6SM SCT120 BKN200
      TEMPO 2620/2621 -TSRA BKN060CB
     FM270000 22010KT P6SM VCTS BKN150CB
     FM270900 35008KT P6SM VCTS OVC030CB
     FM271200 36010KT P6SM OVC015
     FM271600 36012KT P6SM BKN020=

USA.gov is the U.S. government's official web portal to all federal, state and local government web resources and services.